Goshen, AR (72735)

1:25 PM CDT on August 04, 2015 (GMT -0500)
Springdale Municipal | | Change Station
CLOSE
Current Station
Airport
Location: Springdale,
Elevation: 1352 ft
Nearby Weather Stations

Elev 1352 ft 36.18 °N, 94.12 °W | Updated 37 minutes ago

Overcast
Overcast
84 °F
Feels Like 88 °F
N
8
Wind Variable Wind from West

Today
High -- | Low -- °F
--% Chance of Precip.
Yesterday
High -- | Low -- °F
Precip. -- in
6:25 AM 8:18 PM
Waning Gibbous, 75% visible
Pressure 30.05 in
Visibility 10.0 miles
Clouds Few 6000 ft
Scattered Clouds 8000 ft
Overcast 20000 ft
Heat Index 88 °F
Dew Point 70 °F
Humidity 62%
Rainfall 0.00 in
Snow Depth Not available.
UV 3 out of 12
Pollen 5.70 out of 12
Air Quality Not available.
Flu Activity Not available.
METAR KASG 041748Z 27007KT 10SM FEW060 SCT080 OVC200 29/21 A3005

More Conditions Fewer Conditions

Pressure 30.05 in
Visibility 10.0 miles
Clouds Few 6000 ft
Scattered Clouds 8000 ft
Overcast 20000 ft
Heat Index 88 °F
Dew Point 70 °F
Humidity 62%
Rainfall 0.00 in
Snow Depth Not available.
UV 3 out of 12
Pollen 5.70 out of 12
Air Quality Not available.
Flu Activity Not available.
METAR KASG 041748Z 27007KT 10SM FEW060 SCT080 OVC200 29/21 A3005

More Conditions Fewer Conditions

Nowcast | as of 11:02 am CDT on August 4, 2015

At 11:02 am...Doppler radars continued to indicate scattered rain showers spreading east across eastern Oklahoma. The trend has been for this activity to gradually weaken as it progresses eastward across the area. Through 12:30 PM...occasional rain showers will be possible for locations primarily along and to the west of A Hollow to Clayton line. However...there will be the potential for additional isolated development in advance of the ongoing activity. Most locations affected by these showers can expect light precipitation ...With average hourly rainfall of less than one tenth of an inch. Isolated locally higher amounts in excess of one tenth of an inch will be possible with stronger showers...which will also be capable of producing brief gusty winds.

×

10-Day Weather Forecast

×

Almanac

Astronomy

Aug. 04, 2015 Rise Set
Actual Time
Civil Twilight
Nautical Twilight
Astronomical Twilight
Moon
Length of Visible Light
Length of Day
Tomorrow will be .
, % of the Moon is Illuminated

Today's Extremes

State Highs State Lows

Community

WunderPhotos

Upload Photos

1,843,937 photos uploaded!

WunderBlogs® & News

Nearby

Air Quality

  Air Quality AQ Index Pollutant
Not available.

Snow Depth

Station Depth Elevation

Earthquake Activity

City Distance Mag. Time & Date
Minimum magnitude displayed is 2.5.

Coastal Water Temperatures

Place Temperature

Stations

Nearby Weather Stations

Station Location Temp. Windchill Dew Point Humidity Wind Precip. Elev Updated Type